sensor_id;sensor_type;location;lat;lon;timestamp;pressure;altitude;pressure_sealevel;temperature;humidity
60373;BME280;46216;52.220;5.134;2023-04-24T00:00:45;99940.56;;;10.50;100.00
60373;BME280;46216;52.220;5.134;2023-04-24T00:03:11;99954.00;;;10.49;100.00
60373;BME280;46216;52.220;5.134;2023-04-24T00:05:37;99946.53;;;10.42;100.00
60373;BME280;46216;52.220;5.134;2023-04-24T00:08:05;99963.06;;;10.36;100.00
60373;BME280;46216;52.220;5.134;2023-04-24T00:10:31;99970.31;;;10.34;100.00
60373;BME280;46216;52.220;5.134;2023-04-24T00:12:56;99978.06;;;10.37;100.00
60373;BME280;46216;52.220;5.134;2023-04-24T00:15:22;99984.63;;;10.33;100.00
60373;BME280;46216;52.220;5.134;2023-04-24T00:17:47;99979.41;;;10.32;100.00
60373;BME280;46216;52.220;5.134;2023-04-24T00:20:12;99988.66;;;10.28;100.00
60373;BME280;46216;52.220;5.134;2023-04-24T00:22:40;99992.88;;;10.30;100.00
60373;BME280;46216;52.220;5.134;2023-04-24T00:25:05;100000.28;;;10.27;100.00
60373;BME280;46216;52.220;5.134;2023-04-24T00:27:31;100001.13;;;10.27;100.00
60373;BME280;46216;52.220;5.134;2023-04-24T00:29:57;100009.72;;;10.19;100.00
60373;BME280;46216;52.220;5.134;2023-04-24T00:32:22;100014.31;;;10.17;100.00
60373;BME280;46216;52.220;5.134;2023-04-24T00:34:48;100013.34;;;10.18;100.00
60373;BME280;46216;52.220;5.134;2023-04-24T00:37:13;100020.38;;;10.19;100.00
60373;BME280;46216;52.220;5.134;2023-04-24T00:39:38;100025.81;;;10.18;100.00
60373;BME280;46216;52.220;5.134;2023-04-24T00:42:04;100032.72;;;10.21;100.00
60373;BME280;46216;52.220;5.134;2023-04-24T00:44:32;100023.41;;;10.15;100.00
60373;BME280;46216;52.220;5.134;2023-04-24T00:46:58;100037.69;;;10.14;100.00
60373;BME280;46216;52.220;5.134;2023-04-24T00:49:24;100035.78;;;10.16;100.00
60373;BME280;46216;52.220;5.134;2023-04-24T00:51:49;100035.28;;;10.11;100.00
60373;BME280;46216;52.220;5.134;2023-04-24T00:54:17;100046.09;;;10.09;100.00
60373;BME280;46216;52.220;5.134;2023-04-24T00:56:44;100053.22;;;10.09;100.00
60373;BME280;46216;52.220;5.134;2023-04-24T00:59:10;100056.59;;;10.11;100.00
60373;BME280;46216;52.220;5.134;2023-04-24T01:01:36;100055.91;;;10.09;100.00
60373;BME280;46216;52.220;5.134;2023-04-24T01:04:02;100058.91;;;10.04;100.00
60373;BME280;46216;52.220;5.134;2023-04-24T01:06:29;100051.06;;;10.03;100.00
60373;BME280;46216;52.220;5.134;2023-04-24T01:08:56;100058.06;;;10.04;100.00
60373;BME280;46216;52.220;5.134;2023-04-24T01:11:22;100053.75;;;10.03;100.00
60373;BME280;46216;52.220;5.134;2023-04-24T01:13:48;100054.69;;;10.02;100.00
60373;BME280;46216;52.220;5.134;2023-04-24T01:16:16;100056.06;;;9.96;100.00
60373;BME280;46216;52.220;5.134;2023-04-24T01:18:43;100052.41;;;9.97;100.00
60373;BME280;46216;52.220;5.134;2023-04-24T01:21:11;100060.53;;;9.95;100.00
60373;BME280;46216;52.220;5.134;2023-04-24T01:23:38;100065.63;;;9.99;100.00
60373;BME280;46216;52.220;5.134;2023-04-24T01:26:04;100062.34;;;9.95;100.00
60373;BME280;46216;52.220;5.134;2023-04-24T01:28:29;100065.88;;;9.95;100.00
60373;BME280;46216;52.220;5.134;2023-04-24T01:30:55;100070.22;;;9.97;100.00
60373;BME280;46216;52.220;5.134;2023-04-24T01:53:32;100067.78;;;9.93;100.00
60373;BME280;46216;52.220;5.134;2023-04-24T01:55:57;100069.72;;;9.91;100.00
60373;BME280;46216;52.220;5.134;2023-04-24T01:58:23;100069.72;;;9.91;100.00
60373;BME280;46216;52.220;5.134;2023-04-24T02:00:48;100072.38;;;9.91;100.00
60373;BME280;46216;52.220;5.134;2023-04-24T02:03:14;100075.91;;;9.92;100.00
60373;BME280;46216;52.220;5.134;2023-04-24T02:05:39;100077.47;;;9.94;100.00
60373;BME280;46216;52.220;5.134;2023-04-24T02:08:04;100072.28;;;9.93;100.00
60373;BME280;46216;52.220;5.134;2023-04-24T02:10:30;100072.53;;;9.90;100.00
60373;BME280;46216;52.220;5.134;2023-04-24T02:12:55;100073.38;;;9.90;100.00
60373;BME280;46216;52.220;5.134;2023-04-24T02:15:20;100083.03;;;9.91;100.00
60373;BME280;46216;52.220;5.134;2023-04-24T02:17:46;100084.16;;;9.89;100.00
60373;BME280;46216;52.220;5.134;2023-04-24T02:20:11;100078.00;;;9.88;100.00
60373;BME280;46216;52.220;5.134;2023-04-24T02:22:36;100082.59;;;9.86;100.00
60373;BME280;46216;52.220;5.134;2023-04-24T02:25:02;100084.66;;;9.83;100.00
60373;BME280;46216;52.220;5.134;2023-04-24T02:27:27;100086.47;;;9.82;100.00
60373;BME280;46216;52.220;5.134;2023-04-24T02:29:53;100076.06;;;9.79;100.00
60373;BME280;46216;52.220;5.134;2023-04-24T02:32:18;100083.56;;;9.74;100.00
60373;BME280;46216;52.220;5.134;2023-04-24T02:34:43;100091.56;;;9.74;100.00
60373;BME280;46216;52.220;5.134;2023-04-24T02:37:09;100088.78;;;9.76;100.00
60373;BME280;46216;52.220;5.134;2023-04-24T02:39:34;100088.88;;;9.74;100.00
60373;BME280;46216;52.220;5.134;2023-04-24T02:42:00;100088.19;;;9.72;100.00
60373;BME280;46216;52.220;5.134;2023-04-24T02:44:26;100087.22;;;9.73;100.00
60373;BME280;46216;52.220;5.134;2023-04-24T02:46:52;100087.22;;;9.73;100.00
60373;BME280;46216;52.220;5.134;2023-04-24T02:49:17;100092.41;;;9.75;100.00
60373;BME280;46216;52.220;5.134;2023-04-24T02:51:42;100084.31;;;9.76;100.00
60373;BME280;46216;52.220;5.134;2023-04-24T02:54:08;100088.66;;;9.77;100.00
60373;BME280;46216;52.220;5.134;2023-04-24T02:56:36;100083.31;;;9.77;100.00
60373;BME280;46216;52.220;5.134;2023-04-24T02:59:01;100076.31;;;9.76;100.00
60373;BME280;46216;52.220;5.134;2023-04-24T03:01:27;100083.06;;;9.80;100.00
60373;BME280;46216;52.220;5.134;2023-04-24T03:03:52;100076.31;;;9.76;100.00
60373;BME280;46216;52.220;5.134;2023-04-24T03:06:17;100073.66;;;9.76;100.00
60373;BME280;46216;52.220;5.134;2023-04-24T03:08:42;100085.28;;;9.75;100.00
60373;BME280;46216;52.220;5.134;2023-04-24T03:11:08;100081.66;;;9.76;100.00
60373;BME280;46216;52.220;5.134;2023-04-24T03:13:33;100078.50;;;9.71;100.00
60373;BME280;46216;52.220;5.134;2023-04-24T03:15:58;100079.63;;;9.68;100.00
60373;BME280;46216;52.220;5.134;2023-04-24T03:18:24;100081.16;;;9.71;100.00
60373;BME280;46216;52.220;5.134;2023-04-24T03:20:50;100081.88;;;9.73;100.00
60373;BME280;46216;52.220;5.134;2023-04-24T03:23:15;100088.19;;;9.72;100.00
60373;BME280;46216;52.220;5.134;2023-04-24T03:25:41;100075.59;;;9.74;100.00
60373;BME280;46216;52.220;5.134;2023-04-24T03:28:08;100080.91;;;9.74;100.00
60373;BME280;46216;52.220;5.134;2023-04-24T03:30:33;100081.88;;;9.73;100.00
60373;BME280;46216;52.220;5.134;2023-04-24T03:32:58;100081.66;;;9.76;100.00
60373;BME280;46216;52.220;5.134;2023-04-24T03:35:24;100085.28;;;9.75;100.00
60373;BME280;46216;52.220;5.134;2023-04-24T03:37:49;100081.66;;;9.76;100.00
60373;BME280;46216;52.220;5.134;2023-04-24T03:40:14;100079.97;;;9.75;100.00
60373;BME280;46216;52.220;5.134;2023-04-24T03:42:40;100080.91;;;9.74;100.00
60373;BME280;46216;52.220;5.134;2023-04-24T03:45:06;100078.25;;;9.74;100.00
60373;BME280;46216;52.220;5.134;2023-04-24T03:47:31;100081.88;;;9.73;100.00
60373;BME280;46216;52.220;5.134;2023-04-24T03:49:56;100069.56;;;9.72;100.00
60373;BME280;46216;52.220;5.134;2023-04-24T03:52:22;100078.50;;;9.71;100.00
60373;BME280;46216;52.220;5.134;2023-04-24T03:54:47;100080.44;;;9.69;100.00
60373;BME280;46216;52.220;5.134;2023-04-24T03:57:12;100073.41;;;9.68;100.00
60373;BME280;46216;52.220;5.134;2023-04-24T03:59:37;100080.44;;;9.69;100.00
60373;BME280;46216;52.220;5.134;2023-04-24T04:02:03;100081.53;;;9.66;100.00
60373;BME280;46216;52.220;5.134;2023-04-24T04:04:28;100084.06;;;9.68;100.00
60373;BME280;46216;52.220;5.134;2023-04-24T04:06:53;100079.25;;;9.62;100.00
60373;BME280;46216;52.220;5.134;2023-04-24T04:09:19;100084.34;;;9.65;100.00
60373;BME280;46216;52.220;5.134;2023-04-24T04:11:44;100089.66;;;9.65;100.00
60373;BME280;46216;52.220;5.134;2023-04-24T04:14:10;100095.81;;;9.65;100.00
60373;BME280;46216;52.220;5.134;2023-04-24T04:16:35;100100.31;;;9.65;100.00
60373;BME280;46216;52.220;5.134;2023-04-24T04:19:01;100100.53;;;9.62;100.00
60373;BME280;46216;52.220;5.134;2023-04-24T04:21:28;100103.06;;;9.63;100.00
60373;BME280;46216;52.220;5.134;2023-04-24T04:23:53;100107.41;;;9.64;100.00
60373;BME280;46216;52.220;5.134;2023-04-24T04:26:18;100101.97;;;9.66;100.00
60373;BME280;46216;52.220;5.134;2023-04-24T04:28:46;100110.94;;;9.65;100.00
60373;BME280;46216;52.220;5.134;2023-04-24T04:31:12;100116.25;;;9.65;100.00
60373;BME280;46216;52.220;5.134;2023-04-24T04:33:38;100117.22;;;9.64;100.00
60373;BME280;46216;52.220;5.134;2023-04-24T04:36:04;100119.88;;;9.64;100.00
60373;BME280;46216;52.220;5.134;2023-04-24T04:38:30;100121.59;;;9.65;100.00
60373;BME280;46216;52.220;5.134;2023-04-24T04:40:55;100122.53;;;9.64;100.00
60373;BME280;46216;52.220;5.134;2023-04-24T04:43:24;100130.75;;;9.61;100.00
60373;BME280;46216;52.220;5.134;2023-04-24T04:45:50;100147.44;;;9.63;100.00
60373;BME280;46216;52.220;5.134;2023-04-24T04:48:16;100146.72;;;9.61;100.00
60373;BME280;46216;52.220;5.134;2023-04-24T04:50:43;100154.00;;;9.59;100.00
60373;BME280;46216;52.220;5.134;2023-04-24T04:53:09;100154.00;;;9.59;100.00
60373;BME280;46216;52.220;5.134;2023-04-24T04:55:35;100166.69;;;9.55;100.00
60373;BME280;46216;52.220;5.134;2023-04-24T04:58:01;100160.88;;;9.50;100.00
60373;BME280;46216;52.220;5.134;2023-04-24T05:00:26;100167.28;;;9.47;100.00
60373;BME280;46216;52.220;5.134;2023-04-24T05:02:53;100170.66;;;9.50;100.00
60373;BME280;46216;52.220;5.134;2023-04-24T05:05:19;100175.38;;;9.46;100.00
60373;BME280;46216;52.220;5.134;2023-04-24T05:07:44;100178.28;;;9.43;100.00
60373;BME280;46216;52.220;5.134;2023-04-24T05:10:10;100185.66;;;9.28;100.00
60373;BME280;46216;52.220;5.134;2023-04-24T05:12:36;100196.53;;;9.36;100.00
60373;BME280;46216;52.220;5.134;2023-04-24T05:15:01;100191.06;;;9.27;100.00
60373;BME280;46216;52.220;5.134;2023-04-24T05:17:26;100198.69;;;9.20;100.00
60373;BME280;46216;52.220;5.134;2023-04-24T05:19:52;100198.81;;;9.18;100.00
60373;BME280;46216;52.220;5.134;2023-04-24T05:22:17;100198.44;;;9.12;100.00
60373;BME280;46216;52.220;5.134;2023-04-24T05:24:45;100202.91;;;9.11;100.00
60373;BME280;46216;52.220;5.134;2023-04-24T05:27:11;100205.66;;;9.10;100.00
60373;BME280;46216;52.220;5.134;2023-04-24T05:29:36;100209.06;;;9.12;100.00
60373;BME280;46216;52.220;5.134;2023-04-24T05:32:01;100219.19;;;9.07;100.00
60373;BME280;46216;52.220;5.134;2023-04-24T05:34:27;100223.56;;;9.08;100.00
60373;BME280;46216;52.220;5.134;2023-04-24T05:36:52;100224.75;;;9.04;100.00
60373;BME280;46216;52.220;5.134;2023-04-24T05:39:18;100229.09;;;9.05;100.00
60373;BME280;46216;52.220;5.134;2023-04-24T05:41:44;100229.09;;;9.05;100.00
60373;BME280;46216;52.220;5.134;2023-04-24T05:44:10;100235.28;;;9.05;100.00
60373;BME280;46216;52.220;5.134;2023-04-24T05:46:35;100239.75;;;9.05;100.00
60373;BME280;46216;52.220;5.134;2023-04-24T05:49:01;100240.72;;;9.04;100.00
60373;BME280;46216;52.220;5.134;2023-04-24T05:51:27;100253.03;;;9.05;100.00
60373;BME280;46216;52.220;5.134;2023-04-24T05:53:53;100255.91;;;9.02;100.00
60373;BME280;46216;52.220;5.134;2023-04-24T05:56:18;100261.22;;;9.02;100.00
60373;BME280;46216;52.220;5.134;2023-04-24T05:58:45;100259.78;;;8.97;100.00
60373;BME280;46216;52.220;5.134;2023-04-24T06:01:11;100268.38;;;9.01;100.00
60373;BME280;46216;52.220;5.134;2023-04-24T06:03:38;100283.06;;;8.94;100.00
60373;BME280;46216;52.220;5.134;2023-04-24T06:06:03;100278.88;;;9.03;100.00
60373;BME280;46216;52.220;5.134;2023-04-24T06:08:29;100289.16;;;9.07;100.00
60373;BME280;46216;52.220;5.134;2023-04-24T06:10:54;100290.00;;;9.08;100.00
60373;BME280;46216;52.220;5.134;2023-04-24T06:13:20;100305.13;;;9.07;100.00
60373;BME280;46216;52.220;5.134;2023-04-24T06:15:45;100316.59;;;9.08;100.00
60373;BME280;46216;52.220;5.134;2023-04-24T06:18:10;100326.47;;;9.06;100.00
60373;BME280;46216;52.220;5.134;2023-04-24T06:20:39;100320.78;;;8.99;100.00
60373;BME280;46216;52.220;5.134;2023-04-24T06:23:04;100332.03;;;9.03;100.00
60373;BME280;46216;52.220;5.134;2023-04-24T06:25:30;100334.56;;;9.04;100.00
60373;BME280;46216;52.220;5.134;2023-04-24T06:27:55;100346.06;;;9.05;100.00
60373;BME280;46216;52.220;5.134;2023-04-24T06:30:21;100344.38;;;9.04;100.00
60373;BME280;46216;52.220;5.134;2023-04-24T06:32:47;100352.44;;;9.02;100.00
60373;BME280;46216;52.220;5.134;2023-04-24T06:35:12;100370.28;;;9.00;100.00
60373;BME280;46216;52.220;5.134;2023-04-24T06:37:41;100371.16;;;9.00;100.00
60373;BME280;46216;52.220;5.134;2023-04-24T06:40:09;100378.97;;;8.91;100.00
60373;BME280;46216;52.220;5.134;2023-04-24T06:42:35;100398.50;;;8.90;100.00
60373;BME280;46216;52.220;5.134;2023-04-24T06:45:01;100393.84;;;8.93;100.00
60373;BME280;46216;52.220;5.134;2023-04-24T06:47:26;100406.16;;;8.94;100.00
60373;BME280;46216;52.220;5.134;2023-04-24T06:49:52;100413.94;;;8.85;100.00
60373;BME280;46216;52.220;5.134;2023-04-24T06:52:18;100410.94;;;8.89;100.00
60373;BME280;46216;52.220;5.134;2023-04-24T06:54:43;100425.19;;;8.88;100.00
60373;BME280;46216;52.220;5.134;2023-04-24T06:57:08;100424.69;;;8.83;100.00
60373;BME280;46216;52.220;5.134;2023-04-24T06:59:35;100433.63;;;8.82;100.00
60373;BME280;46216;52.220;5.134;2023-04-24T07:02:00;100443.31;;;8.83;100.00
60373;BME280;46216;52.220;5.134;2023-04-24T07:04:26;100440.75;;;8.82;100.00
60373;BME280;46216;52.220;5.134;2023-04-24T07:06:51;100443.41;;;8.82;100.00
60373;BME280;46216;52.220;5.134;2023-04-24T07:09:19;100448.63;;;8.83;100.00
60373;BME280;46216;52.220;5.134;2023-04-24T07:11:45;100455.63;;;8.84;100.00
60373;BME280;46216;52.220;5.134;2023-04-24T07:14:11;100459.25;;;8.83;100.00
60373;BME280;46216;52.220;5.134;2023-04-24T07:16:37;100461.16;;;8.81;100.00
60373;BME280;46216;52.220;5.134;2023-04-24T07:19:02;100471.03;;;8.79;100.00
60373;BME280;46216;52.220;5.134;2023-04-24T07:21:27;100474.44;;;8.81;100.00
60373;BME280;46216;52.220;5.134;2023-04-24T07:23:53;100479.63;;;8.83;100.00
60373;BME280;46216;52.220;5.134;2023-04-24T07:26:19;100481.66;;;8.79;100.00
60373;BME280;46216;52.220;5.134;2023-04-24T07:28:45;100482.63;;;8.78;100.00
60373;BME280;46216;52.220;5.134;2023-04-24T07:31:11;100494.00;;;8.80;100.00
60373;BME280;46216;52.220;5.134;2023-04-24T07:33:36;100492.50;;;8.76;100.00
60373;BME280;46216;52.220;5.134;2023-04-24T07:36:02;100498.69;;;8.76;100.00
60373;BME280;46216;52.220;5.134;2023-04-24T07:38:29;100502.81;;;8.68;100.00
60373;BME280;46216;52.220;5.134;2023-04-24T07:40:55;100509.63;;;8.72;100.00
60373;BME280;46216;52.220;5.134;2023-04-24T07:43:20;100515.34;;;8.66;100.00
60373;BME280;46216;52.220;5.134;2023-04-24T07:45:46;100519.41;;;8.71;100.00
60373;BME280;46216;52.220;5.134;2023-04-24T07:48:12;100523.09;;;8.69;100.00
60373;BME280;46216;52.220;5.134;2023-04-24T07:50:40;100539.88;;;8.69;100.00
60373;BME280;46216;52.220;5.134;2023-04-24T07:53:05;100538.19;;;8.56;100.00
60373;BME280;46216;52.220;5.134;2023-04-24T07:55:30;100542.34;;;8.47;100.00
60373;BME280;46216;52.220;5.134;2023-04-24T07:57:56;100553.19;;;8.57;100.00
60373;BME280;46216;52.220;5.134;2023-04-24T08:00:21;100560.31;;;8.56;100.00
60373;BME280;46216;52.220;5.134;2023-04-24T08:02:47;100558.69;;;8.41;100.00
60373;BME280;46216;52.220;5.134;2023-04-24T08:05:12;100568.06;;;8.46;100.00
60373;BME280;46216;52.220;5.134;2023-04-24T08:07:38;100568.28;;;8.43;100.00
60373;BME280;46216;52.220;5.134;2023-04-24T08:10:03;100581.34;;;8.46;100.00
60373;BME280;46216;52.220;5.134;2023-04-24T08:12:29;100590.03;;;8.48;100.00
60373;BME280;46216;52.220;5.134;2023-04-24T08:14:55;100595.56;;;8.45;100.00
60373;BME280;46216;52.220;5.134;2023-04-24T08:17:20;100596.31;;;8.47;100.00
60373;BME280;46216;52.220;5.134;2023-04-24T08:19:46;100603.09;;;8.51;100.00
60373;BME280;46216;52.220;5.134;2023-04-24T08:22:14;100602.19;;;8.52;100.00
60373;BME280;46216;52.220;5.134;2023-04-24T08:24:39;100615.00;;;8.59;100.00
60373;BME280;46216;52.220;5.134;2023-04-24T08:27:04;100618.22;;;8.64;100.00
60373;BME280;46216;52.220;5.134;2023-04-24T08:29:30;100626.19;;;8.64;100.00
60373;BME280;46216;52.220;5.134;2023-04-24T08:31:55;100605.16;;;8.61;100.00
60373;BME280;46216;52.220;5.134;2023-04-24T08:34:21;100644.34;;;8.57;100.00
60373;BME280;46216;52.220;5.134;2023-04-24T08:36:47;100638.81;;;8.47;100.00
60373;BME280;46216;52.220;5.134;2023-04-24T08:39:12;100649.66;;;8.57;100.00
60373;BME280;46216;52.220;5.134;2023-04-24T08:41:37;100643.91;;;8.50;100.00
60373;BME280;46216;52.220;5.134;2023-04-24T08:44:03;100665.16;;;8.50;100.00
60373;BME280;46216;52.220;5.134;2023-04-24T08:46:30;100658.59;;;8.56;100.00
60373;BME280;46216;52.220;5.134;2023-04-24T08:48:56;100653.03;;;8.59;100.00
60373;BME280;46216;52.220;5.134;2023-04-24T08:51:22;100654.53;;;8.50;100.00
60373;BME280;46216;52.220;5.134;2023-04-24T08:53:49;100664.56;;;8.60;100.00
60373;BME280;46216;52.220;5.134;2023-04-24T08:56:16;100661.69;;;8.63;100.00
60373;BME280;46216;52.220;5.134;2023-04-24T08:58:43;100664.75;;;8.57;100.00
60373;BME280;46216;52.220;5.134;2023-04-24T09:01:08;100676.03;;;8.60;100.00
60373;BME280;46216;52.220;5.134;2023-04-24T09:03:34;100668.78;;;8.49;100.00
60373;BME280;46216;52.220;5.134;2023-04-24T09:06:00;100677.19;;;8.56;100.00
60373;BME280;46216;52.220;5.134;2023-04-24T09:08:25;100682.38;;;8.58;100.00
60373;BME280;46216;52.220;5.134;2023-04-24T09:10:52;100680.69;;;8.57;100.00
60373;BME280;46216;52.220;5.134;2023-04-24T09:13:19;100680.69;;;8.57;100.00
60373;BME280;46216;52.220;5.134;2023-04-24T09:15:44;100685.38;;;8.66;100.00
60373;BME280;46216;52.220;5.134;2023-04-24T09:18:10;100681.66;;;8.68;100.00
60373;BME280;46216;52.220;5.134;2023-04-24T09:21:03;100679.63;;;8.72;100.00
60373;BME280;46216;52.220;5.134;2023-04-24T09:23:31;100685.00;;;8.85;100.00
60373;BME280;46216;52.220;5.134;2023-04-24T09:25:58;100685.84;;;8.85;100.00
60373;BME280;46216;52.220;5.134;2023-04-24T09:28:39;100685.41;;;8.91;100.00
60373;BME280;46216;52.220;5.134;2023-04-24T09:31:12;100688.59;;;8.96;100.00
60373;BME280;46216;52.220;5.134;2023-04-24T09:33:38;100688.19;;;9.03;100.00
60373;BME280;46216;52.220;5.134;2023-04-24T09:36:04;100680.34;;;9.01;100.00
60373;BME280;46216;52.220;5.134;2023-04-24T09:38:35;100702.25;;;9.17;100.00
60373;BME280;46216;52.220;5.134;2023-04-24T09:41:06;100684.34;;;9.07;100.00
60373;BME280;46216;52.220;5.134;2023-04-24T09:43:32;100694.78;;;9.10;100.00
60373;BME280;46216;52.220;5.134;2023-04-24T09:45:58;100695.22;;;9.04;100.00
60373;BME280;46216;52.220;5.134;2023-04-24T09:48:31;100699.25;;;9.09;100.00
60373;BME280;46216;52.220;5.134;2023-04-24T09:50:57;100705.63;;;9.19;100.00
60373;BME280;46216;52.220;5.134;2023-04-24T09:53:26;100706.59;;;9.18;100.00
60373;BME280;46216;52.220;5.134;2023-04-24T09:55:51;100711.47;;;9.12;100.00
60373;BME280;46216;52.220;5.134;2023-04-24T09:58:18;100739.75;;;9.13;100.00
60373;BME280;46216;52.220;5.134;2023-04-24T10:00:49;100738.16;;;8.97;100.00
60373;BME280;46216;52.220;5.134;2023-04-24T10:03:17;100745.13;;;8.86;100.00
60373;BME280;46216;52.220;5.134;2023-04-24T10:05:45;100744.09;;;8.88;100.00
60373;BME280;46216;52.220;5.134;2023-04-24T10:08:12;100747.50;;;8.90;100.00
60373;BME280;46216;52.220;5.134;2023-04-24T10:10:41;100742.00;;;8.93;100.00
60373;BME280;46216;52.220;5.134;2023-04-24T10:13:11;100749.31;;;9.03;100.00
60373;BME280;46216;52.220;5.134;2023-04-24T10:15:38;100752.22;;;9.12;100.00
60373;BME280;46216;52.220;5.134;2023-04-24T10:18:04;100748.09;;;9.21;100.00
60373;BME280;46216;52.220;5.134;2023-04-24T10:20:32;100743.38;;;9.37;100.00
60373;BME280;46216;52.220;5.134;2023-04-24T10:22:59;100737.66;;;9.56;100.00
60373;BME280;46216;52.220;5.134;2023-04-24T10:25:34;100734.34;;;9.53;100.00
60373;BME280;46216;52.220;5.134;2023-04-24T10:28:00;100749.34;;;9.54;100.00
60373;BME280;46216;52.220;5.134;2023-04-24T10:30:37;100755.97;;;9.48;100.00
60373;BME280;46216;52.220;5.134;2023-04-24T10:33:03;100761.81;;;9.28;100.00
60373;BME280;46216;52.220;5.134;2023-04-24T10:35:39;100756.78;;;9.23;100.00
60373;BME280;46216;52.220;5.134;2023-04-24T10:38:09;100770.09;;;9.23;100.00
60373;BME280;46216;52.220;5.134;2023-04-24T10:40:36;100778.16;;;9.09;100.00
60373;BME280;46216;52.220;5.134;2023-04-24T10:43:05;100781.13;;;9.04;100.00
60373;BME280;46216;52.220;5.134;2023-04-24T10:45:33;100793.63;;;8.89;100.00
60373;BME280;46216;52.220;5.134;2023-04-24T10:48:02;100804.16;;;8.91;100.00
60373;BME280;46216;52.220;5.134;2023-04-24T10:50:30;100803.91;;;8.81;100.00
60373;BME280;46216;52.220;5.134;2023-04-24T10:53:08;100804.44;;;8.86;100.00
60373;BME280;46216;52.220;5.134;2023-04-24T10:55:47;100820.19;;;8.89;100.00
60373;BME280;46216;52.220;5.134;2023-04-24T10:58:13;100823.47;;;8.80;100.00
60373;BME280;46216;52.220;5.134;2023-04-24T11:00:40;100816.88;;;9.13;100.00
60373;BME280;46216;52.220;5.134;2023-04-24T11:03:27;100814.41;;;9.75;100.00
60373;BME280;46216;52.220;5.134;2023-04-24T11:05:55;100819.25;;;10.07;100.00
60373;BME280;46216;52.220;5.134;2023-04-24T11:08:29;100825.22;;;10.10;100.00
60373;BME280;46216;52.220;5.134;2023-04-24T11:10:57;100815.19;;;10.39;100.00
60373;BME280;46216;52.220;5.134;2023-04-24T11:13:24;100797.88;;;10.45;100.00
60373;BME280;46216;52.220;5.134;2023-04-24T11:26:48;100791.50;;;10.48;100.00
60373;BME280;46216;52.220;5.134;2023-04-24T11:29:13;100806.75;;;10.70;100.00
60373;BME280;46216;52.220;5.134;2023-04-24T11:31:44;100809.47;;;10.81;100.00
60373;BME280;46216;52.220;5.134;2023-04-24T11:34:17;100816.34;;;10.72;100.00
60373;BME280;46216;52.220;5.134;2023-04-24T11:36:46;100805.22;;;10.54;100.00
60373;BME280;46216;52.220;5.134;2023-04-24T11:39:13;100807.97;;;10.53;100.00
60373;BME280;46216;52.220;5.134;2023-04-24T11:41:39;100810.91;;;10.74;100.00
60373;BME280;46216;52.220;5.134;2023-04-24T11:44:06;100820.41;;;10.65;100.00
60373;BME280;46216;52.220;5.134;2023-04-24T11:46:32;100816.78;;;10.66;100.00
60373;BME280;46216;52.220;5.134;2023-04-24T11:48:58;100819.81;;;10.49;100.00
60373;BME280;46216;52.220;5.134;2023-04-24T11:51:25;100813.91;;;10.32;100.00
60373;BME280;46216;52.220;5.134;2023-04-24T11:53:52;100821.16;;;10.17;100.00
60373;BME280;46216;52.220;5.134;2023-04-24T11:56:18;100820.31;;;10.17;100.00
60373;BME280;46216;52.220;5.134;2023-04-24T11:58:47;100824.38;;;10.10;100.00
60373;BME280;46216;52.220;5.134;2023-04-24T12:01:12;100830.97;;;10.17;100.00
60373;BME280;46216;52.220;5.134;2023-04-24T12:03:38;100836.84;;;10.09;100.00
60373;BME280;46216;52.220;5.134;2023-04-24T12:06:07;100833.84;;;10.14;100.00
60373;BME280;46216;52.220;5.134;2023-04-24T12:08:34;100829.47;;;10.13;100.00
60373;BME280;46216;52.220;5.134;2023-04-24T12:11:04;100841.84;;;10.01;100.00
60373;BME280;46216;52.220;5.134;2023-04-24T12:13:30;100832.56;;;10.07;100.00
60373;BME280;46216;52.220;5.134;2023-04-24T12:15:56;100849.19;;;10.10;100.00
60373;BME280;46216;52.220;5.134;2023-04-24T12:18:23;100851.97;;;10.09;100.00
60373;BME280;46216;52.220;5.134;2023-04-24T12:20:48;100849.31;;;10.09;100.00
60373;BME280;46216;52.220;5.134;2023-04-24T12:23:14;100854.63;;;10.09;100.00
60373;BME280;46216;52.220;5.134;2023-04-24T12:25:39;100864.63;;;10.05;100.00
60373;BME280;46216;52.220;5.134;2023-04-24T12:30:33;100873.91;;;10.00;100.00
60373;BME280;46216;52.220;5.134;2023-04-24T12:32:59;100881.88;;;9.87;100.00
60373;BME280;46216;52.220;5.134;2023-04-24T12:35:27;100905.69;;;9.63;100.00
60373;BME280;46216;52.220;5.134;2023-04-24T12:37:53;100916.50;;;9.34;100.00
60373;BME280;46216;52.220;5.134;2023-04-24T12:40:20;100922.94;;;9.30;100.00
60373;BME280;46216;52.220;5.134;2023-04-24T12:42:47;100928.38;;;9.02;100.00
60373;BME280;46216;52.220;5.134;2023-04-24T12:45:14;100930.84;;;9.05;100.00
60373;BME280;46216;52.220;5.134;2023-04-24T12:47:41;100935.50;;;9.01;100.00
60373;BME280;46216;52.220;5.134;2023-04-24T12:50:08;100935.41;;;9.03;100.00
60373;BME280;46216;52.220;5.134;2023-04-24T12:52:35;100942.03;;;9.10;100.00
60373;BME280;46216;52.220;5.134;2023-04-24T12:55:00;100927.88;;;9.09;100.00
60373;BME280;46216;52.220;5.134;2023-04-24T12:57:27;100932.69;;;9.17;100.00
60373;BME280;46216;52.220;5.134;2023-04-24T12:59:57;100937.53;;;9.37;100.00
60373;BME280;46216;52.220;5.134;2023-04-24T13:02:24;100918.72;;;9.40;100.00
60373;BME280;46216;52.220;5.134;2023-04-24T13:04:50;100933.28;;;9.62;100.00
60373;BME280;46216;52.220;5.134;2023-04-24T13:07:16;100931.94;;;9.82;100.00
60373;BME280;46216;52.220;5.134;2023-04-24T13:09:42;100912.44;;;10.07;100.00
60373;BME280;46216;52.220;5.134;2023-04-24T13:12:11;100918.53;;;10.34;100.00
60373;BME280;46216;52.220;5.134;2023-04-24T13:14:37;100923.66;;;10.37;100.00
60373;BME280;46216;52.220;5.134;2023-04-24T13:17:03;100923.13;;;10.32;100.00